createdAt,value
2023-08-06T00:04:43.380Z,2.92
2023-08-06T00:09:45.919Z,2.40
2023-08-06T00:14:52.515Z,2.60
2023-08-06T00:19:55.088Z,2.50
2023-08-06T00:24:58.810Z,2.55
2023-08-06T00:30:01.343Z,2.38
2023-08-06T00:35:05.418Z,2.30
2023-08-06T00:40:09.003Z,2.50
2023-08-06T00:45:11.583Z,2.83
2023-08-06T00:50:14.380Z,2.65
2023-08-06T00:55:16.959Z,2.67
2023-08-06T01:00:21.734Z,3.60
2023-08-06T01:05:24.527Z,3.05
2023-08-06T01:10:55.044Z,2.55
2023-08-06T01:16:00.788Z,2.97
2023-08-06T01:21:03.768Z,2.55
2023-08-06T01:26:17.059Z,2.47
2023-08-06T01:31:27.527Z,2.30
2023-08-06T01:36:31.193Z,2.13
2023-08-06T01:41:36.242Z,2.20
2023-08-06T01:46:39.884Z,1.98
2023-08-06T01:51:43.587Z,1.65
2023-08-06T01:56:46.118Z,1.90
2023-08-06T02:01:48.726Z,2.25
2023-08-06T02:06:51.338Z,1.55
2023-08-06T02:11:54.086Z,1.60
2023-08-06T02:16:56.794Z,1.27
2023-08-06T02:22:03.297Z,1.25
2023-08-06T02:27:05.921Z,1.38
2023-08-06T02:32:08.861Z,1.50
2023-08-06T02:37:11.264Z,1.33
2023-08-06T02:42:15.136Z,1.35
2023-08-06T02:47:17.817Z,1.38
2023-08-06T02:52:20.475Z,1.95
2023-08-06T02:57:23.502Z,0.93
2023-08-06T03:02:28.629Z,1.20
2023-08-06T03:07:38.678Z,1.00
2023-08-06T03:12:48.987Z,1.20
2023-08-06T03:17:51.496Z,1.20
2023-08-06T03:22:56.975Z,0.90
2023-08-06T03:27:59.903Z,1.45
2023-08-06T03:33:03.228Z,1.10
2023-08-06T03:38:06.041Z,1.00
2023-08-06T03:43:08.916Z,0.90
2023-08-06T03:48:12.266Z,0.95
2023-08-06T03:53:15.301Z,1.33
2023-08-06T03:58:17.881Z,0.90
2023-08-06T04:03:20.904Z,0.90
2023-08-06T04:08:23.970Z,1.10
2023-08-06T04:13:27.574Z,1.33
2023-08-06T04:18:30.270Z,0.90
2023-08-06T04:23:32.793Z,0.90
2023-08-06T04:28:39.471Z,0.98
2023-08-06T04:33:42.480Z,1.00
2023-08-06T04:38:48.641Z,0.90
2023-08-06T04:43:52.294Z,0.70
2023-08-06T04:48:55.129Z,1.00
2023-08-06T04:53:58.895Z,0.70
2023-08-06T04:59:01.473Z,1.10
2023-08-06T05:04:04.671Z,1.00
2023-08-06T05:09:07.451Z,1.33
2023-08-06T05:14:10.038Z,1.27
2023-08-06T05:19:12.534Z,0.73
2023-08-06T05:24:15.074Z,0.65
2023-08-06T05:29:18.265Z,0.75
2023-08-06T05:34:21.058Z,0.63
2023-08-06T05:39:23.588Z,1.00
2023-08-06T05:44:26.112Z,0.90
2023-08-06T05:49:28.705Z,0.60
2023-08-06T05:54:31.066Z,0.57
2023-08-06T05:59:33.680Z,0.40
2023-08-06T06:04:36.612Z,0.40
2023-08-06T06:09:40.618Z,0.90
2023-08-06T06:14:43.273Z,0.88
2023-08-06T06:19:45.798Z,0.20
2023-08-06T06:24:48.262Z,0.70
2023-08-06T06:29:50.737Z,0.25
2023-08-06T06:34:53.322Z,0.20
2023-08-06T06:39:55.948Z,0.35
2023-08-06T06:44:58.346Z,0.30
2023-08-06T06:50:00.924Z,0.55
2023-08-06T06:55:03.734Z,0.40
2023-08-06T07:00:07.149Z,0.30
2023-08-06T07:05:14.836Z,0.47
2023-08-06T07:10:17.393Z,0.40
2023-08-06T07:15:19.912Z,0.35
2023-08-06T07:20:22.582Z,0.40
2023-08-06T07:25:25.069Z,0.43
2023-08-06T07:30:27.925Z,0.70
2023-08-06T07:35:30.720Z,0.63
2023-08-06T07:40:33.313Z,0.20
2023-08-06T07:45:39.792Z,0.95
2023-08-06T07:50:42.384Z,0.20
2023-08-06T07:55:46.478Z,0.10
2023-08-06T08:00:49.282Z,0.00
2023-08-06T08:05:55.439Z,0.10
2023-08-06T08:11:00.096Z,0.10
2023-08-06T08:16:03.242Z,0.10
2023-08-06T08:21:05.755Z,0.20
2023-08-06T08:26:08.200Z,0.20
2023-08-06T08:31:12.468Z,0.30
2023-08-06T08:36:15.122Z,0.10
2023-08-06T08:41:17.585Z,0.00
2023-08-06T08:46:21.168Z,0.10
2023-08-06T08:51:25.652Z,0.00
2023-08-06T08:56:28.591Z,0.13
2023-08-06T09:01:31.897Z,0.20
2023-08-06T09:06:38.204Z,0.10
2023-08-06T09:11:44.746Z,0.20
2023-08-06T09:16:48.748Z,0.20
2023-08-06T09:21:53.425Z,0.20
2023-08-06T09:26:56.427Z,0.20
2023-08-06T09:31:59.659Z,0.10
2023-08-06T09:37:02.360Z,0.10
2023-08-06T09:42:06.131Z,0.57
2023-08-06T09:47:08.842Z,0.20
2023-08-06T09:52:13.594Z,0.20
2023-08-06T09:57:16.827Z,0.70
2023-08-06T10:02:36.731Z,0.30
2023-08-06T10:07:43.599Z,0.30
2023-08-06T10:12:49.628Z,0.10
2023-08-06T10:17:57.259Z,0.10
2023-08-06T10:23:08.128Z,0.10
2023-08-06T10:28:12.655Z,0.10
2023-08-06T10:33:17.008Z,0.40
2023-08-06T10:38:23.814Z,0.10
2023-08-06T10:43:28.407Z,0.40
2023-08-06T10:48:39.192Z,0.40
2023-08-06T10:53:51.863Z,0.40
2023-08-06T10:58:57.767Z,0.20
2023-08-06T11:04:03.741Z,0.10
2023-08-06T11:09:06.368Z,0.10
2023-08-06T11:14:16.585Z,0.30
2023-08-06T11:19:19.191Z,0.10
2023-08-06T11:24:21.848Z,0.40
2023-08-06T11:29:24.417Z,0.50
2023-08-06T11:34:27.081Z,0.30
2023-08-06T11:39:29.715Z,0.20
2023-08-06T11:44:37.733Z,0.30
2023-08-06T11:49:50.464Z,0.10
2023-08-06T11:55:11.428Z,0.32
2023-08-06T12:00:15.145Z,0.52
2023-08-06T12:05:21.681Z,0.10
2023-08-06T12:10:26.663Z,0.28
2023-08-06T12:15:31.140Z,0.10
2023-08-06T12:20:35.050Z,0.10
2023-08-06T12:25:37.498Z,0.20
2023-08-06T12:30:42.929Z,0.10
2023-08-06T12:35:45.925Z,0.10
2023-08-06T12:40:48.413Z,0.37
2023-08-06T12:45:50.948Z,0.10
2023-08-06T12:50:53.468Z,0.30
2023-08-06T12:55:56.031Z,0.20
2023-08-06T13:00:58.590Z,0.20
2023-08-06T13:06:01.224Z,0.10
2023-08-06T13:11:03.628Z,0.10
2023-08-06T13:16:06.133Z,0.30
2023-08-06T13:21:08.643Z,0.20
2023-08-06T13:26:11.090Z,0.10
2023-08-06T13:31:13.763Z,0.10
2023-08-06T13:36:16.935Z,0.10
2023-08-06T13:41:19.552Z,0.20
2023-08-06T13:46:22.004Z,0.10
2023-08-06T13:51:25.907Z,0.10
2023-08-06T13:56:29.087Z,0.17
2023-08-06T14:01:47.345Z,0.00
2023-08-06T14:06:53.613Z,0.10
2023-08-06T14:11:56.273Z,0.10
2023-08-06T14:16:59.672Z,0.00
2023-08-06T14:22:02.323Z,0.10
2023-08-06T14:27:07.168Z,0.10
2023-08-06T14:32:09.660Z,0.10
2023-08-06T14:37:12.511Z,0.10
2023-08-06T14:42:14.988Z,0.63
2023-08-06T14:47:17.611Z,0.10
2023-08-06T14:52:20.334Z,0.08
2023-08-06T14:57:28.691Z,0.10
2023-08-06T15:02:31.363Z,0.10
2023-08-06T15:07:36.412Z,0.20
2023-08-06T15:12:40.484Z,0.10
2023-08-06T15:17:42.926Z,0.13
2023-08-06T15:22:45.435Z,0.20
2023-08-06T15:27:47.903Z,0.33
2023-08-06T15:32:50.418Z,0.40
2023-08-06T15:37:53.475Z,0.17
2023-08-06T15:42:56.092Z,0.10
2023-08-06T15:47:58.847Z,0.63
2023-08-06T15:53:01.420Z,0.20
2023-08-06T15:58:03.997Z,0.87
2023-08-06T16:03:06.509Z,0.52
2023-08-06T16:08:09.044Z,0.85
2023-08-06T16:13:11.585Z,0.65
2023-08-06T16:18:14.030Z,0.50
2023-08-06T16:23:16.461Z,0.20
2023-08-06T16:28:19.032Z,0.40
2023-08-06T16:33:21.398Z,0.80
2023-08-06T16:38:23.911Z,0.93
2023-08-06T16:43:26.380Z,0.47
2023-08-06T16:48:28.946Z,0.40
2023-08-06T16:53:31.537Z,0.30
2023-08-06T16:58:34.120Z,0.80
2023-08-06T17:03:36.759Z,0.40
2023-08-06T17:08:40.154Z,0.33
2023-08-06T17:13:42.577Z,0.57
2023-08-06T17:18:45.055Z,1.17
2023-08-06T17:23:47.602Z,0.40
2023-08-06T17:28:50.223Z,0.50
2023-08-06T17:33:52.764Z,0.50
2023-08-06T17:38:55.221Z,0.83
2023-08-06T17:43:58.038Z,1.83
2023-08-06T17:49:00.807Z,0.63
2023-08-06T17:54:03.364Z,0.57
2023-08-06T17:59:05.949Z,1.00
2023-08-06T18:04:08.821Z,0.50
2023-08-06T18:09:11.433Z,0.50
2023-08-06T18:14:13.871Z,0.90
2023-08-06T18:19:16.619Z,0.90
2023-08-06T18:24:19.281Z,1.20
2023-08-06T18:29:21.825Z,0.70
2023-08-06T18:34:24.282Z,0.60
2023-08-06T18:39:26.937Z,0.53
2023-08-06T18:44:30.760Z,0.90
2023-08-06T18:49:33.196Z,0.50
2023-08-06T18:54:35.696Z,0.70
2023-08-06T18:59:38.301Z,0.70
2023-08-06T19:04:40.865Z,0.57
2023-08-06T19:09:47.048Z,0.70
2023-08-06T19:14:49.506Z,0.60
2023-08-06T19:19:52.129Z,0.70
2023-08-06T19:24:54.575Z,1.00
2023-08-06T19:29:56.949Z,0.87
2023-08-06T19:34:59.359Z,0.80
2023-08-06T19:40:01.965Z,0.87
2023-08-06T19:45:05.912Z,0.85
2023-08-06T19:50:08.792Z,1.10
2023-08-06T19:55:11.673Z,0.73
2023-08-06T20:00:14.700Z,0.75
2023-08-06T20:05:17.536Z,0.52
2023-08-06T20:10:20.064Z,0.50
2023-08-06T20:15:22.490Z,0.70
2023-08-06T20:20:25.017Z,0.90
2023-08-06T20:25:27.536Z,0.75
2023-08-06T20:30:30.450Z,0.60
2023-08-06T20:35:32.922Z,0.47
2023-08-06T20:40:36.443Z,0.85
2023-08-06T20:45:39.496Z,0.90
2023-08-06T20:50:42.379Z,0.80
2023-08-06T20:55:44.935Z,0.87
2023-08-06T21:00:47.431Z,0.73
2023-08-06T21:06:06.897Z,1.07
2023-08-06T21:11:14.559Z,1.10
2023-08-06T21:16:17.140Z,0.70
2023-08-06T21:21:19.685Z,0.90
2023-08-06T21:26:22.385Z,1.23
2023-08-06T21:31:25.313Z,0.80
2023-08-06T21:36:29.935Z,0.70
2023-08-06T21:41:32.457Z,0.90
2023-08-06T21:46:37.668Z,1.40
2023-08-06T21:51:40.486Z,1.00
2023-08-06T21:56:46.184Z,0.90
2023-08-06T22:01:48.668Z,0.80
2023-08-06T22:06:51.171Z,0.80
2023-08-06T22:11:53.951Z,0.90
2023-08-06T22:16:56.760Z,0.83
2023-08-06T22:21:59.234Z,0.70
2023-08-06T22:27:01.675Z,1.05
2023-08-06T22:32:04.442Z,1.30
2023-08-06T22:37:06.958Z,1.10
2023-08-06T22:42:09.470Z,1.05
2023-08-06T22:47:12.009Z,1.70
2023-08-06T22:52:15.344Z,0.80
2023-08-06T22:57:17.748Z,1.00
2023-08-06T23:02:20.283Z,0.93
2023-08-06T23:07:22.926Z,0.90
2023-08-06T23:12:25.495Z,1.03
2023-08-06T23:17:27.983Z,0.82
2023-08-06T23:22:30.483Z,0.93
2023-08-06T23:27:33.027Z,0.85
2023-08-06T23:32:35.528Z,0.90
2023-08-06T23:37:38.190Z,1.00
2023-08-06T23:42:40.957Z,0.60
2023-08-06T23:47:44.397Z,0.70
2023-08-06T23:52:46.997Z,0.80
2023-08-06T23:57:49.566Z,0.80
